Time;durP1;ratioP1;P1;durP2;ratioP2;P2;SDS_P1;SDS_P2;PMS_P1;PMS_P2;Temp;Humidity;BMP_temperature;BMP_pressure;BME280_temperature;BME280_humidity;BME280_pressure;Samples;Min_cycle;Max_cycle;Signal;HPM_P1;HPM_P2
2022/08/31 00:05:44;;;;;;;6.90;6.30;;;19.10;99.90;;;20.02;63.80;98010.78;5218292;28;20604;-66
2022/08/31 00:08:19;;;;;;;8.13;7.25;;;19.20;99.90;;;20.01;64.25;98008.16;5223445;28;20197;-66
2022/08/31 00:10:55;;;;;;;7.43;6.72;;;19.20;99.90;;;19.98;64.64;98006.38;5222926;28;20311;-66
2022/08/31 00:13:30;;;;;;;7.32;6.72;;;19.20;99.90;;;20.06;64.43;97998.75;5217845;28;20236;-66
2022/08/31 00:16:05;;;;;;;7.15;6.55;;;19.20;99.90;;;19.93;64.59;97991.53;5215281;28;20224;-66
2022/08/31 00:18:41;;;;;;;7.82;7.18;;;19.10;99.90;;;19.94;64.54;97998.47;5215011;28;20197;-68
2022/08/31 00:21:17;;;;;;;7.50;6.72;;;19.10;99.90;;;20.02;64.38;97999.53;5214787;28;20704;-65
2022/08/31 00:23:52;;;;;;;7.95;7.18;;;19.10;99.90;;;19.95;65.14;98005.44;5212277;28;20687;-66
2022/08/31 00:26:27;;;;;;;7.65;6.95;;;19.10;99.90;;;19.88;65.77;98003.53;5215346;28;20209;-67
2022/08/31 00:29:01;;;;;;;7.78;6.93;;;18.90;99.90;;;19.75;66.46;97994.59;5217177;28;20213;-68
2022/08/31 00:31:37;;;;;;;7.40;6.80;;;18.80;99.90;;;19.70;66.36;97994.47;5219174;28;20274;-66
2022/08/31 00:34:12;;;;;;;7.63;6.93;;;18.80;99.90;;;19.70;65.65;97998.81;5222952;28;20746;-66
2022/08/31 00:36:48;;;;;;;7.00;6.40;;;18.90;99.90;;;19.70;65.48;97999.66;5216799;28;20315;-67
2022/08/31 00:39:22;;;;;;;7.35;6.65;;;18.90;99.90;;;19.81;65.61;98002.53;5214190;28;20558;-66
2022/08/31 00:41:58;;;;;;;6.95;6.35;;;18.90;99.90;;;19.86;65.80;97994.81;5219679;28;20220;-66
2022/08/31 00:44:32;;;;;;;8.32;7.53;;;19.00;99.90;;;19.89;66.15;98000.97;5216725;28;20235;-65
2022/08/31 00:47:09;;;;;;;10.73;8.50;;;19.00;99.90;;;19.83;66.75;97995.66;5218171;28;20204;-66
2022/08/31 00:49:48;;;;;;;9.50;8.48;;;18.90;99.90;;;19.77;67.13;97988.63;5218957;28;20207;-68
2022/08/31 00:52:29;;;;;;;9.55;8.35;;;18.90;99.90;;;19.69;67.63;97992.75;5216090;28;20202;-66
2022/08/31 00:55:15;;;;;;;8.32;7.15;;;18.80;99.90;;;19.74;67.58;97993.72;5212024;28;20255;-66
2022/08/31 00:57:53;;;;;;;8.25;7.45;;;18.80;99.90;;;19.70;67.49;97984.09;5214250;28;20209;-66
2022/08/31 01:00:30;;;;;;;7.88;7.18;;;18.80;99.90;;;19.68;67.37;97988.38;5218476;28;20215;-69
2022/08/31 01:03:07;;;;;;;7.32;6.72;;;18.80;99.90;;;19.60;67.15;97987.28;5218986;28;20243;-65
2022/08/31 01:05:42;;;;;;;6.97;6.38;;;18.70;99.90;;;19.58;67.45;97978.63;5219471;28;20286;-66
2022/08/31 01:08:18;;;;;;;9.02;6.60;;;18.70;99.90;;;19.55;67.38;97969.03;5213172;28;20205;-67
2022/08/31 01:11:02;;;;;;;7.43;6.68;;;18.70;99.90;;;19.61;67.38;97978.69;5221491;28;20201;-66
2022/08/31 01:13:38;;;;;;;6.75;6.15;;;18.70;99.90;;;19.54;67.54;97969.91;5177426;28;1257964;-65
2022/08/31 01:16:20;;;;;;;8.10;7.40;;;18.70;99.90;;;19.59;67.37;97976.03;5221770;28;20203;-66
2022/08/31 01:18:58;;;;;;;7.70;7.03;;;18.70;99.90;;;19.64;67.26;97970.97;5218859;28;20259;-66
2022/08/31 01:21:43;;;;;;;9.45;7.35;;;18.70;99.90;;;19.72;67.57;97982.44;5221434;28;20577;-66
2022/08/31 01:24:20;;;;;;;7.47;6.90;;;18.70;99.90;;;19.66;67.19;97978.81;5218072;28;20699;-67
2022/08/31 01:26:57;;;;;;;7.85;7.15;;;18.70;99.90;;;19.54;68.36;97976.78;5221809;28;20691;-66
2022/08/31 01:29:32;;;;;;;7.85;7.05;;;18.70;99.90;;;19.62;67.69;97977.81;5220312;28;20224;-67
2022/08/31 01:32:08;;;;;;;7.45;6.75;;;18.60;99.90;;;19.57;67.89;97976.84;5219048;28;20345;-65
2022/08/31 01:34:43;;;;;;;7.47;6.88;;;18.70;99.90;;;19.55;68.45;97981.13;5219635;28;20232;-65
2022/08/31 01:37:18;;;;;;;8.00;7.38;;;18.60;99.90;;;19.52;69.00;97978.47;5222165;28;20200;-67
2022/08/31 01:40:04;;;;;;;7.15;6.55;;;18.60;99.90;;;19.52;68.99;97973.28;5221021;28;20567;-65
2022/08/31 01:42:38;;;;;;;7.78;6.93;;;18.70;99.90;;;19.49;68.90;97965.44;5222169;28;20224;-66
2022/08/31 01:45:14;;;;;;;7.90;7.20;;;18.60;99.90;;;19.50;69.19;97968.06;5219667;28;20596;-67
2022/08/31 01:47:48;;;;;;;7.63;6.40;;;18.60;99.90;;;19.48;69.42;97967.13;5219293;28;20189;-65
2022/08/31 01:50:23;;;;;;;6.82;6.28;;;18.60;99.90;;;19.51;69.50;97977.56;5221615;28;20258;-66
2022/08/31 01:52:57;;;;;;;7.97;7.18;;;18.60;99.90;;;19.53;70.07;97977.63;5221867;28;20237;-65
2022/08/31 01:55:36;;;;;;;7.50;6.80;;;18.60;99.90;;;19.56;69.81;97993.25;5222499;28;20205;-65
2022/08/31 01:58:10;;;;;;;8.25;7.57;;;18.60;99.90;;;19.53;70.22;98006.16;5221983;28;20214;-66
2022/08/31 02:00:46;;;;;;;7.32;6.47;;;18.60;99.90;;;19.54;69.56;98018.25;5223048;28;20204;-66
2022/08/31 02:03:21;;;;;;;7.00;6.40;;;18.60;99.90;;;19.59;69.29;98017.53;5219334;28;20752;-66
2022/08/31 02:05:56;;;;;;;7.70;6.75;;;18.70;99.90;;;19.58;69.39;98020.97;5223229;28;20215;-66
2022/08/31 02:08:30;;;;;;;7.35;6.68;;;18.70;99.90;;;19.73;68.62;98011.84;5223792;28;20209;-66
2022/08/31 02:11:07;;;;;;;7.47;6.88;;;18.70;99.90;;;19.68;69.35;98006.53;5220957;28;20213;-66
2022/08/31 02:13:42;;;;;;;7.40;6.70;;;18.70;99.90;;;19.67;69.51;98012.56;5219998;28;20604;-65
2022/08/31 02:16:16;;;;;;;7.97;7.28;;;18.70;99.90;;;19.57;70.38;98013.16;5221101;28;20205;-66
2022/08/31 02:18:52;;;;;;;8.18;6.78;;;18.60;99.90;;;19.52;70.48;98022.56;5223156;28;20205;-67
2022/08/31 02:21:27;;;;;;;7.20;6.68;;;18.60;99.90;;;19.56;70.38;98022.66;5222055;28;20261;-66
2022/08/31 02:24:01;;;;;;;7.82;7.13;;;18.70;99.90;;;19.56;70.05;98022.66;5220803;28;20220;-66
2022/08/31 02:26:37;;;;;;;6.95;6.35;;;18.70;99.90;;;19.60;69.42;98015.81;5221958;28;20573;-65
2022/08/31 02:29:12;;;;;;;7.45;6.78;;;18.70;99.90;;;19.66;69.55;98022.88;5222851;28;20204;-67
2022/08/31 02:31:46;;;;;;;6.85;6.25;;;18.80;99.90;;;19.69;69.73;98021.28;5222800;28;20258;-65
2022/08/31 02:34:21;;;;;;;7.13;6.53;;;18.80;99.90;;;19.71;69.96;98026.47;5216004;28;20224;-65
2022/08/31 02:36:56;;;;;;;8.00;7.20;;;18.80;99.90;;;19.71;69.84;98035.13;5219715;28;20208;-67
2022/08/31 02:39:32;;;;;;;7.45;6.75;;;18.90;99.90;;;19.71;70.28;98032.53;5220978;28;20266;-66
2022/08/31 02:42:08;;;;;;;6.65;6.15;;;18.90;99.90;;;19.73;70.10;98038.66;5220772;28;20233;-66
2022/08/31 02:44:43;;;;;;;8.15;7.35;;;18.90;99.90;;;19.77;70.44;98042.19;5221460;28;20565;-66
2022/08/31 02:47:18;;;;;;;7.95;7.07;;;18.90;99.90;;;19.76;70.60;98046.50;5220062;28;20201;-66
2022/08/31 02:49:53;;;;;;;7.47;6.93;;;18.90;99.90;;;19.73;70.57;98049.03;5220826;28;20209;-67
2022/08/31 02:52:28;;;;;;;7.50;6.80;;;18.80;99.90;;;19.72;70.35;98049.88;5221074;28;20565;-66
2022/08/31 02:55:02;;;;;;;7.43;6.82;;;18.90;99.90;;;19.73;70.38;98049.03;5219473;28;20591;-65
2022/08/31 02:57:39;;;;;;;8.80;6.85;;;18.90;99.90;;;19.72;70.49;98042.09;5220991;28;20250;-66
2022/08/31 03:00:15;;;;;;;6.90;6.40;;;18.90;99.90;;;19.70;70.63;98045.50;5219584;28;20205;-65
2022/08/31 03:02:50;;;;;;;7.25;6.65;;;18.80;99.90;;;19.74;70.14;98039.50;5220849;28;20220;-65
2022/08/31 03:05:25;;;;;;;7.00;6.40;;;18.90;99.90;;;19.74;70.38;98042.13;5220540;28;20655;-65
2022/08/31 03:08:00;;;;;;;7.07;6.47;;;18.80;99.90;;;19.71;70.25;98048.09;5220341;28;20262;-67
2022/08/31 03:10:35;;;;;;;6.70;6.10;;;18.80;99.90;;;19.72;69.92;98044.69;5220785;28;20287;-67
2022/08/31 03:13:11;;;;;;;7.20;6.60;;;18.80;99.90;;;19.72;69.75;98044.69;5221661;28;20615;-65
2022/08/31 03:15:47;;;;;;;6.50;6.00;;;18.90;99.90;;;19.75;69.40;98046.47;5219740;28;20658;-66
2022/08/31 03:18:23;;;;;;;6.35;5.85;;;18.90;99.90;;;19.74;69.40;98037.81;5221190;28;20209;-67
2022/08/31 03:20:57;;;;;;;6.75;6.15;;;18.90;99.90;;;19.75;69.36;98044.75;5219905;28;20589;-65
2022/08/31 03:23:32;;;;;;;7.18;6.57;;;18.90;99.90;;;19.76;69.44;98040.44;5220134;28;21082;-65
2022/08/31 03:26:07;;;;;;;7.07;6.38;;;18.90;99.90;;;19.73;69.89;98043.84;5218469;28;20292;-65
2022/08/31 03:28:44;;;;;;;6.95;6.28;;;18.90;99.90;;;19.75;69.66;98042.16;5224014;28;20217;-67
2022/08/31 03:31:18;;;;;;;6.78;6.07;;;18.90;99.90;;;19.68;69.92;98044.56;5219445;28;20331;-67
2022/08/31 03:33:54;;;;;;;7.07;6.47;;;18.80;99.90;;;19.65;70.37;98042.78;5222145;28;20240;-66
2022/08/31 03:36:29;;;;;;;8.43;6.88;;;18.80;99.90;;;19.66;70.23;98051.41;5223412;28;20200;-66
2022/08/31 03:39:03;;;;;;;7.20;6.60;;;18.80;99.90;;;19.65;70.52;98047.94;5220514;28;20205;-66
2022/08/31 03:41:38;;;;;;;7.13;6.43;;;18.80;99.90;;;19.60;70.36;98046.94;5220912;28;20201;-67
2022/08/31 03:44:14;;;;;;;7.43;6.72;;;18.70;99.90;;;19.58;70.73;98051.22;5216370;28;20236;-66
2022/08/31 03:46:49;;;;;;;7.63;6.80;;;18.70;99.90;;;19.59;70.86;98055.56;5219879;28;20778;-67
2022/08/31 03:49:25;;;;;;;7.93;6.90;;;18.70;99.90;;;19.58;70.99;98046.03;5221748;28;20259;-65
2022/08/31 03:52:01;;;;;;;7.28;6.68;;;18.70;99.90;;;19.55;71.42;98052.03;5221137;28;20228;-66
2022/08/31 03:54:36;;;;;;;6.82;6.28;;;18.70;99.90;;;19.59;71.31;98053.84;5223315;28;20587;-65
2022/08/31 03:57:11;;;;;;;7.43;6.72;;;18.70;99.90;;;19.58;71.84;98051.22;5223946;28;20251;-65
2022/08/31 03:59:47;;;;;;;7.72;6.85;;;18.70;99.90;;;19.59;71.57;98058.16;5223624;28;20228;-67
2022/08/31 04:02:22;;;;;;;7.90;6.90;;;18.70;99.90;;;19.60;71.72;98059.88;5223715;28;20243;-66
2022/08/31 04:04:57;;;;;;;6.88;6.28;;;18.70;99.90;;;19.59;71.80;98055.56;5223723;28;20217;-66
2022/08/31 04:07:32;;;;;;;6.60;6.10;;;18.70;99.90;;;19.61;72.05;98053.03;5221953;28;20219;-66
2022/08/31 04:10:16;;;;;;;7.07;6.47;;;18.70;99.90;;;19.64;72.22;98056.56;5222982;28;20237;-66
2022/08/31 04:12:51;;;;;;;6.43;5.93;;;18.70;99.90;;;19.62;72.47;98066.00;5218828;28;20209;-66
2022/08/31 04:15:27;;;;;;;7.22;6.60;;;18.70;99.90;;;19.56;72.45;98063.25;5223389;28;20626;-66
2022/08/31 04:18:02;;;;;;;6.80;6.20;;;18.70;99.90;;;19.57;72.39;98060.72;5221683;28;20295;-66
2022/08/31 04:20:38;;;;;;;9.27;7.13;;;18.70;99.90;;;19.56;73.34;98058.06;5221970;28;20200;-66
2022/08/31 04:23:13;;;;;;;7.15;6.55;;;18.70;99.90;;;19.57;73.33;98065.91;5220168;28;20586;-66
2022/08/31 04:25:47;;;;;;;7.63;6.78;;;18.60;99.90;;;19.54;73.77;98070.13;5221716;28;20205;-67
2022/08/31 04:28:22;;;;;;;7.60;6.90;;;18.60;99.90;;;19.53;73.81;98079.63;5220445;28;20200;-66
2022/08/31 04:30:58;;;;;;;8.10;7.38;;;18.60;99.90;;;19.50;73.97;98079.53;5219617;28;20196;-66
2022/08/31 04:33:34;;;;;;;7.75;7.15;;;18.60;99.90;;;19.44;74.44;98084.56;5222747;28;20232;-67
2022/08/31 04:36:12;;;;;;;8.20;7.22;;;18.50;99.90;;;19.43;74.41;98084.53;5221835;28;20283;-66
2022/08/31 04:38:49;;;;;;;7.38;6.68;;;18.50;99.90;;;19.42;74.17;98078.47;5223219;28;20201;-65
2022/08/31 04:41:27;;;;;;;7.95;7.25;;;18.40;99.90;;;19.36;74.72;98084.38;5221572;28;20286;-65
2022/08/31 04:44:03;;;;;;;7.35;6.68;;;18.40;99.90;;;19.34;74.29;98091.25;5221546;28;20235;-65
2022/08/31 04:46:40;;;;;;;7.90;7.10;;;18.30;99.90;;;19.29;74.39;98085.06;5222324;28;20199;-66
2022/08/31 04:49:15;;;;;;;7.78;7.18;;;18.30;99.90;;;19.22;75.45;98088.31;5221335;28;20700;-66
2022/08/31 04:51:50;;;;;;;9.00;7.45;;;18.30;99.90;;;19.23;75.20;98091.78;5225716;28;20201;-66
2022/08/31 04:54:25;;;;;;;7.53;6.82;;;18.30;99.90;;;19.20;75.46;98089.09;5219919;28;20221;-66
2022/08/31 04:56:59;;;;;;;6.85;6.25;;;18.30;99.90;;;19.19;75.59;98088.22;5219783;28;20204;-69
2022/08/31 04:59:34;;;;;;;7.60;6.93;;;18.30;99.90;;;19.21;75.92;98086.56;5220804;28;20208;-66
2022/08/31 05:02:10;;;;;;;7.38;6.75;;;18.30;99.90;;;19.21;76.22;98093.47;5221659;28;20200;-67
2022/08/31 05:04:44;;;;;;;8.50;7.50;;;18.30;99.90;;;19.21;76.51;98090.88;5218034;28;20248;-65
2022/08/31 05:07:19;;;;;;;8.35;7.65;;;18.30;99.90;;;19.21;76.96;98090.88;5221737;28;20247;-65
2022/08/31 05:09:53;;;;;;;8.10;7.40;;;18.30;99.90;;;19.23;76.69;98090.09;5219687;28;20254;-66
2022/08/31 05:12:28;;;;;;;7.80;7.20;;;18.30;99.90;;;19.23;76.43;98090.09;5220817;28;20204;-66
2022/08/31 05:15:02;;;;;;;7.50;6.90;;;18.30;99.90;;;19.30;76.11;98092.00;5220252;28;20306;-67
2022/08/31 05:17:39;;;;;;;8.55;7.60;;;18.30;99.90;;;19.24;76.41;98086.66;5221725;28;20208;-68
2022/08/31 05:20:13;;;;;;;8.10;7.45;;;18.30;99.90;;;19.23;76.50;98095.28;5220664;28;20204;-65
2022/08/31 05:22:48;;;;;;;8.93;8.00;;;18.30;99.90;;;19.20;77.01;98091.69;5220884;28;20291;-66
2022/08/31 05:25:23;;;;;;;8.95;8.05;;;18.30;99.90;;;19.20;76.88;98100.38;5222163;28;20238;-66
2022/08/31 05:27:57;;;;;;;8.43;7.63;;;18.30;99.90;;;19.22;76.61;98096.09;5220669;28;20211;-69
2022/08/31 05:30:32;;;;;;;8.60;7.90;;;18.20;99.90;;;19.24;76.88;98097.03;5218460;28;20196;-65
2022/08/31 05:33:08;;;;;;;9.63;8.13;;;18.10;99.90;;;19.16;76.79;98103.69;5218020;28;20212;-66
2022/08/31 05:35:43;;;;;;;8.82;8.02;;;18.10;99.90;;;19.08;77.45;98110.38;5223254;28;20657;-66
2022/08/31 05:38:18;;;;;;;9.15;8.25;;;18.10;99.90;;;19.06;77.74;98118.13;5220284;28;20204;-66
2022/08/31 05:40:54;;;;;;;8.70;7.85;;;18.10;99.90;;;19.12;77.73;98122.63;5220214;28;20196;-67
2022/08/31 05:43:30;;;;;;;8.50;7.80;;;18.10;99.90;;;19.15;77.84;98116.63;5220065;28;20224;-66
2022/08/31 05:46:07;;;;;;;8.60;7.80;;;18.20;99.90;;;19.18;77.93;98125.38;5218889;28;20216;-65
2022/08/31 05:48:45;;;;;;;8.95;8.15;;;18.30;99.90;;;19.17;78.15;98133.97;5217613;28;20219;-68
2022/08/31 05:51:23;;;;;;;9.38;8.48;;;18.20;99.90;;;19.16;78.45;98129.63;5219238;28;20216;-66
2022/08/31 05:54:00;;;;;;;8.88;8.07;;;18.20;99.90;;;19.14;78.45;98133.88;5221213;28;20212;-67
2022/08/31 05:56:35;;;;;;;8.80;8.00;;;18.20;99.90;;;19.13;78.29;98132.13;5219521;28;20201;-65
2022/08/31 05:59:11;;;;;;;9.27;8.27;;;18.20;99.90;;;19.19;77.91;98134.88;5220359;28;20201;-66
2022/08/31 06:01:46;;;;;;;8.68;7.85;;;18.20;99.90;;;19.17;77.93;98141.72;5220711;28;20424;-66
2022/08/31 06:04:22;;;;;;;9.20;8.40;;;18.20;99.90;;;19.19;78.13;98140.06;5218087;28;20224;-66
2022/08/31 06:06:57;;;;;;;11.30;8.85;;;18.20;99.90;;;19.19;78.06;98134.88;5220739;28;20250;-66
2022/08/31 06:09:32;;;;;;;8.82;8.02;;;18.20;99.90;;;19.17;78.20;98135.69;5216011;28;20204;-65
2022/08/31 06:12:07;;;;;;;9.10;8.20;;;18.20;99.90;;;19.21;78.34;98138.41;5219988;28;20219;-65
2022/08/31 06:14:52;;;;;;;8.77;7.97;;;18.30;99.90;;;19.24;78.17;98147.97;5222187;28;20703;-65
2022/08/31 06:17:27;;;;;;;8.82;8.07;;;18.20;99.90;;;19.24;78.17;98143.66;5218182;28;20684;-67
2022/08/31 06:20:06;;;;;;;7.70;7.10;;;18.20;99.90;;;19.15;77.85;98148.59;5223518;28;20204;-66
2022/08/31 06:22:46;;;;;;;8.40;7.60;;;18.10;99.90;;;19.09;77.12;98151.03;5221409;28;20235;-68
2022/08/31 06:25:23;;;;;;;9.38;8.45;;;18.10;99.90;;;19.13;76.98;98147.69;5218286;28;20806;-66
2022/08/31 06:27:58;;;;;;;9.30;8.18;;;18.10;99.90;;;19.16;77.01;98155.53;5220428;28;20645;-66
2022/08/31 06:30:36;;;;;;;9.20;8.20;;;18.20;99.90;;;19.13;77.43;98158.03;5220434;28;20217;-66
2022/08/31 06:33:28;;;;;;;9.50;8.60;;;18.20;99.90;;;19.20;77.44;98156.50;5219659;28;20221;-66
2022/08/31 06:36:04;;;;;;;9.18;8.38;;;18.30;99.90;;;19.30;77.11;98155.91;5219633;28;20196;-65
2022/08/31 06:38:39;;;;;;;9.20;8.35;;;18.30;99.90;;;19.38;76.77;98157.00;5219456;28;20213;-66
2022/08/31 06:41:16;;;;;;;10.70;8.30;;;18.40;99.90;;;19.41;77.13;98154.50;5215951;28;20207;-65
2022/08/31 06:43:51;;;;;;;9.25;8.38;;;18.50;99.90;;;19.42;77.36;98157.97;5217920;28;20734;-67
2022/08/31 06:46:27;;;;;;;9.38;8.45;;;18.50;99.90;;;19.48;77.06;98158.13;5220440;28;20215;-66
2022/08/31 06:49:03;;;;;;;9.57;8.65;;;18.60;99.90;;;19.57;76.73;98158.34;5219624;28;20215;-66
2022/08/31 06:51:44;;;;;;;9.60;8.75;;;18.70;99.90;;;19.60;76.77;98153.25;5220708;28;20704;-66
2022/08/31 06:54:19;;;;;;;10.00;9.10;;;18.70;99.90;;;19.62;76.88;98156.78;5219286;28;20220;-66
2022/08/31 06:57:03;;;;;;;9.25;8.27;;;18.70;99.90;;;19.69;76.92;98152.69;5220226;28;20229;-66
2022/08/31 06:59:38;;;;;;;8.45;7.75;;;18.70;99.90;;;19.74;77.26;98151.97;5219705;28;20212;-66
2022/08/31 07:02:13;;;;;;;9.15;8.35;;;18.80;99.90;;;19.76;78.32;98158.03;5221015;28;20203;-66
2022/08/31 07:04:48;;;;;;;10.18;9.27;;;18.90;99.90;;;19.87;78.57;98160.91;5221249;28;20611;-67
2022/08/31 07:07:24;;;;;;;9.23;8.43;;;18.90;99.90;;;19.92;79.10;98161.91;5218662;28;20200;-67
2022/08/31 07:09:59;;;;;;;9.15;8.35;;;19.00;99.90;;;19.97;79.52;98160.31;5219800;28;20219;-66
2022/08/31 07:12:33;;;;;;;10.35;9.35;;;19.00;99.90;;;20.02;79.60;98157.81;5221272;28;20736;-67
2022/08/31 07:15:08;;;;;;;9.68;8.70;;;19.10;99.90;;;20.06;80.39;98156.16;5222415;28;20596;-66
2022/08/31 07:17:43;;;;;;;9.80;8.73;;;19.10;99.90;;;20.15;80.25;98157.28;5221360;28;20215;-67
2022/08/31 07:20:19;;;;;;;9.40;8.48;;;19.10;99.90;;;20.17;80.23;98163.41;5220884;28;20216;-67
2022/08/31 07:22:55;;;;;;;9.63;8.73;;;19.20;99.90;;;20.20;80.48;98158.28;5220569;28;20207;-67
2022/08/31 07:25:30;;;;;;;10.02;9.18;;;19.20;99.90;;;20.32;79.56;98159.41;5219605;28;20236;-66
2022/08/31 07:28:04;;;;;;;9.80;8.77;;;19.30;99.90;;;20.29;79.92;98169.69;5221626;28;20208;-67
2022/08/31 07:30:40;;;;;;;9.93;8.93;;;19.30;99.90;;;20.35;80.01;98162.94;5225003;28;20209;-67
2022/08/31 07:33:15;;;;;;;9.80;8.93;;;19.40;99.90;;;20.54;79.13;98166.84;5224680;28;20236;-66
2022/08/31 07:35:50;;;;;;;10.77;9.77;;;19.40;99.90;;;20.47;79.36;98168.41;5225581;28;20193;-67
2022/08/31 07:44:11;;;;;;;10.57;9.57;;;19.60;99.90;;;20.62;78.75;98167.03;5224529;28;20599;-66
2022/08/31 07:46:47;;;;;;;10.02;8.98;;;19.60;99.90;;;20.68;78.10;98168.03;5224806;28;20237;-67
2022/08/31 07:49:23;;;;;;;10.45;9.45;;;19.60;99.90;;;20.66;78.46;98172.34;5223107;28;20205;-67
2022/08/31 07:51:58;;;;;;;10.55;9.55;;;19.60;99.90;;;20.69;77.91;98168.94;5223088;28;20220;-66
2022/08/31 07:54:34;;;;;;;8.77;7.97;;;19.60;99.90;;;20.72;77.83;98173.31;5221670;28;20240;-68
2022/08/31 07:57:09;;;;;;;10.00;9.02;;;19.60;99.90;;;20.74;77.63;98172.50;5223732;28;20212;-66
2022/08/31 07:59:45;;;;;;;9.10;8.20;;;19.70;99.90;;;20.89;77.65;98177.19;5219543;28;20197;-67
2022/08/31 08:02:22;;;;;;;9.40;8.52;;;19.90;99.90;;;20.75;78.20;98169.06;5217670;28;20661;-67
2022/08/31 08:04:59;;;;;;;9.20;8.30;;;19.80;99.90;;;20.76;78.12;98175.16;5223123;28;20229;-67
2022/08/31 08:07:33;;;;;;;9.68;8.88;;;19.80;99.90;;;20.81;78.08;98182.19;5219966;28;20250;-66
2022/08/31 08:10:12;;;;;;;10.13;9.13;;;19.80;99.90;;;20.89;77.48;98188.44;5220154;28;20197;-67
2022/08/31 08:12:56;;;;;;;9.35;8.35;;;19.90;99.90;;;20.87;77.28;98190.13;5219023;28;20220;-67
2022/08/31 08:15:33;;;;;;;9.95;8.93;;;19.90;99.90;;;20.98;77.05;98198.16;5219668;28;20531;-67
2022/08/31 08:18:09;;;;;;;10.32;9.30;;;19.90;99.90;;;21.11;75.97;98200.16;5220566;28;20203;-67
2022/08/31 08:20:42;;;;;;;10.88;9.88;;;20.00;99.90;;;21.01;76.77;98200.81;5212016;28;20232;-67
2022/08/31 08:23:17;;;;;;;9.73;8.73;;;20.00;99.90;;;21.13;76.76;98208.00;5217838;28;20233;-67
2022/08/31 08:26:07;;;;;;;9.70;8.70;;;20.00;99.90;;;21.12;76.45;98207.13;5217702;28;20224;-67
2022/08/31 08:28:42;;;;;;;9.50;8.63;;;20.00;99.90;;;21.21;76.00;98211.63;5222223;28;20720;-67
2022/08/31 08:31:21;;;;;;;9.32;8.43;;;20.10;99.90;;;21.22;76.05;98212.50;5219759;28;20232;-67
2022/08/31 08:33:55;;;;;;;9.18;8.38;;;20.10;99.90;;;21.19;76.43;98220.25;5216754;28;21964;-67
2022/08/31 08:36:34;;;;;;;9.88;9.00;;;20.10;99.90;;;21.25;75.62;98210.84;5219938;28;20201;-67
2022/08/31 08:39:09;;;;;;;9.95;9.05;;;20.10;99.90;;;21.27;75.36;98210.88;5224693;28;20644;-66
2022/08/31 08:41:48;;;;;;;9.57;8.65;;;20.10;99.90;;;21.39;74.57;98212.88;5221405;28;20197;-66
2022/08/31 08:44:23;;;;;;;10.15;9.15;;;20.20;99.90;;;21.39;74.33;98221.56;5220042;28;20647;-66
2022/08/31 08:46:59;;;;;;;10.18;9.13;;;20.30;99.90;;;21.39;74.72;98216.34;5218496;28;20636;-66
2022/08/31 08:49:41;;;;;;;9.63;8.82;;;20.20;99.90;;;21.34;74.71;98213.63;5223757;28;20229;-67
2022/08/31 08:52:23;;;;;;;10.40;9.05;;;20.20;99.90;;;21.42;74.39;98221.63;5222458;28;20198;-67
2022/08/31 08:55:01;;;;;;;12.82;9.02;;;20.30;99.90;;;21.49;74.02;98217.41;5219913;28;20304;-68
2022/08/31 08:57:41;;;;;;;9.98;8.95;;;20.30;99.90;;;21.50;73.68;98222.66;5223646;28;20232;-66
2022/08/31 09:00:18;;;;;;;9.38;8.48;;;20.40;99.90;;;21.45;73.89;98223.41;5218570;28;20304;-67
2022/08/31 09:02:57;;;;;;;9.95;8.95;;;20.30;99.90;;;21.46;74.41;98227.75;5219211;28;20243;-68
2022/08/31 09:05:59;;;;;;;9.90;9.00;;;20.30;99.90;;;21.66;72.95;98234.25;5218398;28;20228;-67
2022/08/31 09:09:07;;;;;;;9.90;9.00;;;20.50;99.90;;;21.58;73.52;98228.88;5218422;28;20678;-67
2022/08/31 09:11:54;;;;;;;10.27;9.32;;;20.40;99.90;;;21.57;73.04;98219.31;5220579;28;20205;-66
2022/08/31 09:14:47;;;;;;;10.23;8.68;;;20.40;99.90;;;21.58;73.35;98220.22;5219723;28;20252;-65
2022/08/31 09:17:40;;;;;;;9.45;8.55;;;20.40;99.90;;;21.66;73.02;98217.72;5218691;28;20193;-67
2022/08/31 09:20:15;;;;;;;9.70;8.75;;;20.50;99.90;;;21.61;73.34;98219.38;5216421;28;20616;-67
2022/08/31 09:22:51;;;;;;;10.00;8.73;;;20.60;99.90;;;21.80;72.51;98218.88;5219227;28;20204;-67
2022/08/31 09:25:31;;;;;;;9.23;8.30;;;20.70;99.90;;;21.82;72.78;98222.38;5219467;28;20312;-68
2022/08/31 09:28:12;;;;;;;9.40;8.60;;;20.80;99.90;;;21.90;71.99;98226.00;5222278;28;20216;-68
2022/08/31 09:30:52;;;;;;;9.60;8.80;;;20.80;99.90;;;22.17;70.48;98224.72;5221537;28;20620;-67
2022/08/31 09:33:28;;;;;;;8.98;8.18;;;21.00;99.90;;;22.20;70.22;98230.00;5221212;28;20700;-67
2022/08/31 09:36:17;;;;;;;9.63;8.77;;;21.00;99.90;;;22.01;70.14;98221.88;5219189;28;20232;-67
2022/08/31 09:38:51;;;;;;;9.43;8.57;;;20.90;99.90;;;22.01;70.81;98234.88;5219289;28;20233;-67
2022/08/31 09:41:35;;;;;;;8.73;7.93;;;20.80;99.90;;;22.11;70.33;98227.22;5220753;28;20281;-67
2022/08/31 09:44:33;;;;;;;10.38;9.32;;;20.90;99.90;;;22.12;69.99;98226.38;5219927;28;20756;-67
2022/08/31 09:47:47;;;;;;;9.70;8.82;;;20.90;99.90;;;22.05;69.31;98228.88;5222141;28;20552;-67
2022/08/31 09:50:32;;;;;;;9.35;8.57;;;21.00;99.90;;;22.22;69.33;98226.59;5220020;28;20204;-67
2022/08/31 09:56:15;;;;;;;9.10;8.18;;;21.10;99.90;;;22.33;69.03;98218.97;5217265;28;20268;-68
2022/08/31 09:58:52;;;;;;;9.75;8.80;;;21.10;99.90;;;22.55;67.97;98221.88;5221559;28;20197;-68
2022/08/31 10:01:33;;;;;;;9.82;8.90;;;21.30;99.90;;;22.45;67.56;98223.47;5220212;28;20201;-67
2022/08/31 10:04:22;;;;;;;9.68;8.77;;;21.30;99.90;;;22.60;67.70;98225.44;5220783;28;20221;-67
2022/08/31 10:07:12;;;;;;;11.68;8.80;;;21.30;99.90;;;22.59;66.79;98216.75;5217167;28;20316;-67
2022/08/31 10:09:48;;;;;;;9.35;8.52;;;21.40;99.90;;;22.60;67.29;98210.69;5214794;28;20221;-68
2022/08/31 10:12:42;;;;;;;9.30;8.50;;;21.40;99.90;;;22.63;66.81;98217.66;5220019;28;20689;-67
2022/08/31 10:15:22;;;;;;;9.63;8.82;;;21.50;99.90;;;22.71;66.63;98218.66;5217109;28;20244;-67
2022/08/31 10:18:02;;;;;;;9.45;8.50;;;21.50;99.90;;;22.87;66.17;98215.44;5221525;28;20508;-67
2022/08/31 10:20:44;;;;;;;10.02;9.05;;;21.70;99.90;;;23.04;65.25;98217.44;5220274;28;20204;-67
2022/08/31 10:23:25;;;;;;;10.10;9.15;;;21.80;99.90;;;23.03;64.92;98218.28;5217509;28;20240;-67
2022/08/31 10:26:06;;;;;;;9.40;8.60;;;21.80;99.90;;;23.19;63.75;98215.00;5217228;28;20237;-68
2022/08/31 10:28:49;;;;;;;9.30;8.45;;;22.00;99.90;;;23.34;63.96;98227.38;5221470;28;20258;-67
2022/08/31 10:31:30;;;;;;;9.50;8.60;;;22.10;99.90;;;23.35;63.82;98219.56;5213416;28;20209;-67
2022/08/31 10:37:08;;;;;;;9.05;8.18;;;22.20;99.90;;;23.58;63.24;98217.22;5218435;28;20267;-67
2022/08/31 10:39:47;;;;;;;9.05;8.20;;;22.30;99.90;;;23.66;62.56;98225.13;5220560;28;20200;-68
2022/08/31 10:42:28;;;;;;;9.05;8.27;;;22.50;99.90;;;23.82;61.85;98210.53;5227089;28;20229;-68
2022/08/31 10:45:11;;;;;;;9.85;8.60;;;22.60;99.90;;;23.75;61.66;98208.72;5219602;28;20232;-67
2022/08/31 10:47:54;;;;;;;9.73;8.82;;;22.50;99.90;;;23.79;61.51;98205.28;5217095;28;20201;-68
2022/08/31 10:50:39;;;;;;;9.00;8.20;;;22.60;99.90;;;23.82;61.52;98210.53;5216419;28;20323;-67
2022/08/31 10:53:25;;;;;;;9.32;8.45;;;22.60;99.90;;;23.71;61.36;98213.03;5215773;28;20286;-67
2022/08/31 10:56:13;;;;;;;9.93;8.82;;;22.60;99.90;;;23.83;61.45;98210.53;5219305;28;20247;-68
2022/08/31 10:59:11;;;;;;;9.55;8.55;;;22.60;99.90;;;23.97;60.82;98205.47;5218690;28;20240;-68
2022/08/31 11:01:55;;;;;;;8.77;8.00;;;22.80;99.90;;;23.87;59.60;98208.88;5218770;28;20271;-68
2022/08/31 11:04:59;;;;;;;8.75;7.85;;;22.90;99.90;;;24.10;59.18;98211.69;5218248;28;20274;-67
2022/08/31 11:07:45;;;;;;;8.52;7.82;;;23.10;99.90;;;24.10;59.65;98210.81;5201032;28;20239;-68
2022/08/31 11:10:29;;;;;;;8.45;7.68;;;23.30;99.90;;;24.17;58.98;98213.47;5224032;28;20252;-67
2022/08/31 11:13:13;;;;;;;9.25;8.55;;;23.20;99.90;;;24.41;58.15;98204.97;5222722;28;20216;-67
2022/08/31 11:16:12;;;;;;;8.70;8.00;;;23.40;99.90;;;24.66;58.10;98218.25;5224297;28;20246;-67
2022/08/31 11:19:09;;;;;;;8.25;7.47;;;23.70;99.90;;;24.91;56.47;98214.06;5220806;28;20586;-67